Time;durP1;ratioP1;P1;durP2;ratioP2;P2;SDS_P1;SDS_P2;PMS_P1;PMS_P2;Temp;Humidity;BMP_temperature;BMP_pressure;BME280_temperature;BME280_humidity;BME280_pressure;Samples;Min_cycle;Max_cycle;Signal;HPM_P1;HPM_P2
2022/07/05 00:02:02;;;;;;;5.03;3.00;;;17.60;99.90;;;;;;5010767;28;20030;-77
2022/07/05 00:04:27;;;;;;;4.03;2.70;;;17.60;99.90;;;;;;5009931;28;20424;-78
2022/07/05 00:09:37;;;;;;;3.33;2.60;;;17.60;99.90;;;;;;5012297;28;20382;-78
2022/07/05 00:12:03;;;;;;;5.45;2.70;;;17.60;99.90;;;;;;5012871;28;20037;-78
2022/07/05 00:14:28;;;;;;;7.75;2.65;;;17.60;99.90;;;;;;5013741;28;20360;-78
2022/07/05 00:16:54;;;;;;;4.53;2.10;;;17.50;99.90;;;;;;5013666;28;20029;-77
2022/07/05 00:19:20;;;;;;;6.55;2.50;;;17.50;99.90;;;;;;5012413;28;20741;-78
2022/07/05 00:21:45;;;;;;;5.28;2.35;;;17.50;99.90;;;;;;5010272;28;20077;-78
2022/07/05 00:24:11;;;;;;;5.82;2.40;;;17.40;99.90;;;;;;4994953;28;20031;-77
2022/07/05 00:26:36;;;;;;;2.90;2.13;;;17.30;99.90;;;;;;5011117;28;20092;-78
2022/07/05 00:29:02;;;;;;;4.88;2.60;;;17.30;99.90;;;;;;5013728;28;20041;-78
2022/07/05 00:31:27;;;;;;;4.88;2.35;;;17.30;99.90;;;;;;5013252;28;20044;-78
2022/07/05 00:33:53;;;;;;;5.03;2.40;;;17.30;99.90;;;;;;5012153;28;20137;-78
2022/07/05 00:36:18;;;;;;;4.32;2.20;;;17.20;99.90;;;;;;5013784;28;20030;-77
2022/07/05 00:38:44;;;;;;;8.23;3.17;;;17.20;99.90;;;;;;5013319;28;20072;-78
2022/07/05 00:41:10;;;;;;;5.50;2.45;;;17.20;99.90;;;;;;5013443;28;20038;-77
2022/07/05 00:43:35;;;;;;;3.25;2.28;;;17.20;99.90;;;;;;5026980;28;20029;-77
2022/07/05 00:46:01;;;;;;;6.05;3.05;;;17.20;99.90;;;;;;5013485;28;20505;-78
2022/07/05 00:48:26;;;;;;;3.67;2.20;;;17.20;99.90;;;;;;5013431;28;20843;-78
2022/07/05 00:50:52;;;;;;;4.30;2.50;;;17.20;99.90;;;;;;5012754;28;20561;-78
2022/07/05 00:53:18;;;;;;;6.00;2.50;;;17.20;99.90;;;;;;5013267;28;20426;-78
2022/07/05 00:55:44;;;;;;;6.03;2.72;;;17.20;99.90;;;;;;5013035;28;20471;-78
2022/07/05 00:58:10;;;;;;;6.78;2.60;;;17.20;99.90;;;;;;5012764;28;20475;-78
2022/07/05 01:00:36;;;;;;;4.18;2.50;;;17.20;99.90;;;;;;5013156;28;20061;-78
2022/07/05 01:03:02;;;;;;;8.07;2.60;;;17.20;99.90;;;;;;5013144;28;20053;-78
2022/07/05 01:05:29;;;;;;;4.65;2.38;;;17.20;99.90;;;;;;5013340;28;20061;-78
2022/07/05 01:07:56;;;;;;;4.93;2.70;;;17.10;99.90;;;;;;5011752;28;20041;-78
2022/07/05 01:10:22;;;;;;;4.88;2.63;;;17.20;99.90;;;;;;5012812;28;20036;-78
2022/07/05 01:12:48;;;;;;;5.25;2.83;;;17.20;99.90;;;;;;5011528;28;20395;-77
2022/07/05 01:15:13;;;;;;;3.60;2.63;;;17.20;99.90;;;;;;5011300;28;20034;-78
2022/07/05 01:17:39;;;;;;;4.25;2.78;;;17.10;99.90;;;;;;5012709;28;20030;-78
2022/07/05 01:20:06;;;;;;;3.75;2.58;;;17.10;99.90;;;;;;5009940;28;20080;-78
2022/07/05 01:22:52;;;;;;;4.15;2.70;;;17.10;99.90;;;;;;5008593;28;20034;-77
2022/07/05 01:25:18;;;;;;;;;;;17.10;99.90;;;;;;5009042;28;20054;-78
2022/07/05 01:27:45;;;;;;;5.07;2.42;;;17.00;99.90;;;;;;5012381;28;19945;-78
2022/07/05 01:30:11;;;;;;;4.15;2.10;;;17.00;99.90;;;;;;5012406;28;20113;-78
2022/07/05 01:32:37;;;;;;;4.25;2.42;;;17.00;99.90;;;;;;5012660;28;20109;-78
2022/07/05 01:35:04;;;;;;;3.53;2.22;;;17.00;99.90;;;;;;5012387;28;20121;-78
2022/07/05 01:37:30;;;;;;;4.97;2.20;;;17.00;99.90;;;;;;5012448;28;20022;-78
2022/07/05 01:39:57;;;;;;;3.95;2.13;;;17.00;99.90;;;;;;5012067;28;20033;-78
2022/07/05 01:42:23;;;;;;;3.97;2.53;;;17.00;99.90;;;;;;5012493;28;20541;-78
2022/07/05 01:44:48;;;;;;;3.83;2.15;;;16.90;99.90;;;;;;5012533;28;20018;-78
2022/07/05 01:47:16;;;;;;;6.80;2.80;;;16.90;99.90;;;;;;5012548;28;20026;-78
2022/07/05 01:49:45;;;;;;;4.72;2.45;;;16.90;99.90;;;;;;5011533;28;20034;-77
2022/07/05 01:52:12;;;;;;;3.83;2.13;;;16.80;99.90;;;;;;5011979;28;20033;-77
2022/07/05 01:54:39;;;;;;;6.43;2.63;;;16.80;99.90;;;;;;5011966;28;20482;-78
2022/07/05 01:57:05;;;;;;;4.03;2.33;;;16.80;99.90;;;;;;5012445;28;20115;-77
2022/07/05 01:59:37;;;;;;;3.50;2.58;;;16.80;99.90;;;;;;5012462;28;20022;-77
2022/07/05 02:02:07;;;;;;;5.07;2.40;;;16.70;99.90;;;;;;5011992;28;20026;-77
2022/07/05 02:04:34;;;;;;;3.72;2.22;;;16.70;99.90;;;;;;5011788;28;20102;-78
2022/07/05 02:07:04;;;;;;;4.03;2.45;;;16.70;99.90;;;;;;5006633;28;20383;-78
2022/07/05 02:09:30;;;;;;;6.35;2.72;;;16.60;99.90;;;;;;5010715;28;20165;-78
2022/07/05 02:11:55;;;;;;;4.68;2.80;;;16.60;99.90;;;;;;5011940;28;20101;-78
2022/07/05 02:14:21;;;;;;;6.90;2.63;;;16.60;99.90;;;;;;5021187;28;20060;-78
2022/07/05 02:16:46;;;;;;;3.30;2.60;;;16.60;99.90;;;;;;5020606;28;20033;-78
2022/07/05 02:19:12;;;;;;;2.80;2.20;;;16.60;99.90;;;;;;5011670;28;20022;-78
2022/07/05 02:21:38;;;;;;;3.70;2.40;;;16.60;99.90;;;;;;5009372;28;20026;-78
2022/07/05 02:24:04;;;;;;;4.72;2.70;;;16.50;99.90;;;;;;5007407;28;20052;-78
2022/07/05 02:26:29;;;;;;;4.28;2.45;;;16.50;99.90;;;;;;5011423;28;20041;-78
2022/07/05 02:28:55;;;;;;;3.95;2.53;;;16.60;99.90;;;;;;5011557;28;20443;-78
2022/07/05 02:31:20;;;;;;;3.42;2.42;;;16.50;99.90;;;;;;5011457;28;20034;-78
2022/07/05 02:33:46;;;;;;;4.82;2.45;;;16.50;99.90;;;;;;5009566;28;20086;-78
2022/07/05 02:36:13;;;;;;;4.80;2.70;;;16.50;99.90;;;;;;5010933;28;20026;-77
2022/07/05 02:38:39;;;;;;;4.53;3.60;;;16.50;99.90;;;;;;5011076;28;20025;-77
2022/07/05 02:41:09;;;;;;;7.28;2.80;;;16.50;99.90;;;;;;5010548;28;20057;-77
2022/07/05 02:43:35;;;;;;;4.90;2.85;;;16.50;99.90;;;;;;5003799;28;20022;-77
2022/07/05 02:46:01;;;;;;;5.28;2.85;;;16.50;99.90;;;;;;5011265;28;20034;-78
2022/07/05 02:48:27;;;;;;;5.47;2.78;;;16.50;99.90;;;;;;5010729;28;20036;-77
2022/07/05 02:50:53;;;;;;;4.30;2.72;;;16.50;99.90;;;;;;5010894;28;20104;-77
2022/07/05 02:53:18;;;;;;;4.40;2.60;;;16.50;99.90;;;;;;5010333;28;20108;-77
2022/07/05 02:55:44;;;;;;;3.38;2.67;;;16.50;99.90;;;;;;5010809;28;20360;-77
2022/07/05 02:58:10;;;;;;;5.75;2.72;;;16.50;99.90;;;;;;5010581;28;20364;-77
2022/07/05 03:00:35;;;;;;;6.53;2.80;;;16.50;99.90;;;;;;5010839;28;20091;-77
2022/07/05 03:03:01;;;;;;;4.03;2.63;;;16.50;99.90;;;;;;5010663;28;20033;-77
2022/07/05 03:05:27;;;;;;;4.22;3.00;;;16.50;99.90;;;;;;5010794;28;20497;-77
2022/07/05 03:07:53;;;;;;;3.65;2.72;;;16.50;99.90;;;;;;5010908;28;20030;-78
2022/07/05 03:10:19;;;;;;;5.18;2.50;;;16.50;99.90;;;;;;5010730;28;20033;-77
2022/07/05 03:12:44;;;;;;;5.05;2.60;;;16.50;99.90;;;;;;5010728;28;20087;-77
2022/07/05 03:15:10;;;;;;;4.53;2.78;;;16.50;99.90;;;;;;5010424;28;20461;-77
2022/07/05 03:17:36;;;;;;;5.68;2.65;;;16.50;99.90;;;;;;5009443;28;20454;-77
2022/07/05 03:20:01;;;;;;;4.78;2.80;;;16.50;99.90;;;;;;5009370;28;20053;-78
2022/07/05 03:22:27;;;;;;;9.65;2.83;;;16.50;99.90;;;;;;5003646;28;20034;-77
2022/07/05 03:24:52;;;;;;;6.93;2.75;;;16.40;99.90;;;;;;5005851;28;20107;-77
2022/07/05 03:27:18;;;;;;;2.97;2.42;;;16.40;99.90;;;;;;5010588;28;20356;-77
2022/07/05 03:29:43;;;;;;;3.65;2.60;;;16.40;99.90;;;;;;5010635;28;20025;-78
2022/07/05 03:32:09;;;;;;;5.53;3.00;;;16.40;99.90;;;;;;5010613;28;20053;-78
2022/07/05 03:34:34;;;;;;;8.02;2.88;;;16.30;99.90;;;;;;5009976;28;20038;-78
2022/07/05 03:37:00;;;;;;;6.40;2.83;;;16.30;99.90;;;;;;5010499;28;20384;-78
2022/07/05 03:39:25;;;;;;;6.97;2.78;;;16.30;99.90;;;;;;5010383;28;20495;-77
2022/07/05 03:41:51;;;;;;;5.60;3.08;;;16.30;99.90;;;;;;5010356;28;20477;-78
2022/07/05 03:44:17;;;;;;;5.57;2.83;;;16.30;99.90;;;;;;5011542;28;20040;-77
2022/07/05 03:46:42;;;;;;;4.28;2.53;;;16.30;99.90;;;;;;5014200;28;20025;-77
2022/07/05 03:49:08;;;;;;;5.22;2.65;;;16.30;99.90;;;;;;5014445;28;20036;-78
2022/07/05 03:51:33;;;;;;;4.85;2.78;;;16.30;99.90;;;;;;5014275;28;20034;-77
2022/07/05 03:53:59;;;;;;;5.25;2.72;;;16.20;99.90;;;;;;5013971;28;20065;-78
2022/07/05 03:56:25;;;;;;;3.83;2.80;;;16.20;99.90;;;;;;5014047;28;20034;-77
2022/07/05 03:58:50;;;;;;;4.15;2.80;;;16.20;99.90;;;;;;5014033;28;20050;-79
2022/07/05 04:01:16;;;;;;;7.97;2.40;;;16.20;99.90;;;;;;5014250;28;20056;-78
2022/07/05 04:03:42;;;;;;;6.38;2.50;;;16.20;99.90;;;;;;5014259;28;20034;-78
2022/07/05 04:06:09;;;;;;;5.65;2.20;;;16.20;99.90;;;;;;5013607;28;20034;-78
2022/07/05 04:08:35;;;;;;;4.72;2.67;;;16.20;99.90;;;;;;5013379;28;20038;-79
2022/07/05 04:11:01;;;;;;;3.70;2.80;;;16.20;99.90;;;;;;5014183;28;20034;-88
2022/07/05 04:13:26;;;;;;;4.03;2.80;;;16.20;99.90;;;;;;5014093;28;20034;-77
2022/07/05 04:15:53;;;;;;;6.65;2.60;;;16.20;99.90;;;;;;5012341;28;20425;-78
2022/07/05 04:18:18;;;;;;;4.97;2.90;;;16.20;99.90;;;;;;5011360;28;20092;-75
2022/07/05 04:20:44;;;;;;;5.55;2.88;;;16.30;99.90;;;;;;5005626;28;20025;-74
2022/07/05 04:23:10;;;;;;;4.85;2.65;;;16.40;99.90;;;;;;5003529;28;20100;-74
2022/07/05 04:25:35;;;;;;;5.55;3.17;;;16.40;99.90;;;;;;5016442;28;20491;-75
2022/07/05 04:28:01;;;;;;;5.45;3.08;;;16.50;99.90;;;;;;5014289;28;20410;-75
2022/07/05 04:30:27;;;;;;;5.03;2.92;;;16.60;99.90;;;;;;5002432;28;20435;-75
2022/07/05 04:32:52;;;;;;;5.78;3.45;;;16.60;99.90;;;;;;5012593;28;20034;-75
2022/07/05 04:35:18;;;;;;;3.95;2.40;;;16.70;99.90;;;;;;5029840;28;20017;-75
2022/07/05 04:37:44;;;;;;;6.93;2.60;;;16.80;99.90;;;;;;5015725;28;20029;-74
2022/07/05 04:40:11;;;;;;;5.10;3.10;;;16.80;99.90;;;;;;5003228;28;20036;-75
2022/07/05 04:42:37;;;;;;;5.90;2.95;;;16.90;99.90;;;;;;5028874;28;20029;-75
2022/07/05 04:45:03;;;;;;;5.82;2.75;;;16.90;99.90;;;;;;5025322;28;20034;-75
2022/07/05 04:47:29;;;;;;;4.15;2.92;;;16.90;99.90;;;;;;5016307;28;20034;-75
2022/07/05 04:49:57;;;;;;;6.32;2.70;;;16.90;99.90;;;;;;5008846;28;20041;-76
2022/07/05 04:52:23;;;;;;;7.97;3.00;;;17.00;99.90;;;;;;5016198;28;20032;-75
2022/07/05 04:54:51;;;;;;;6.30;2.83;;;17.00;99.90;;;;;;5014484;28;20036;-75
2022/07/05 04:57:18;;;;;;;10.10;3.22;;;17.00;99.90;;;;;;5031627;28;20087;-75
2022/07/05 04:59:44;;;;;;;7.00;2.63;;;17.00;99.90;;;;;;5014812;28;20037;-75
2022/07/05 05:02:10;;;;;;;7.38;2.58;;;17.10;99.90;;;;;;5020641;28;20032;-75
2022/07/05 05:04:36;;;;;;;5.38;2.60;;;17.10;99.90;;;;;;5022564;28;20448;-75
2022/07/05 05:07:01;;;;;;;4.07;2.50;;;17.10;99.90;;;;;;5011771;28;20394;-75
2022/07/05 05:09:27;;;;;;;5.53;2.30;;;17.10;99.90;;;;;;5015730;28;20057;-75
2022/07/05 05:11:52;;;;;;;4.88;2.38;;;17.10;99.90;;;;;;5015552;28;20034;-75
2022/07/05 05:14:18;;;;;;;5.72;2.88;;;17.20;99.90;;;;;;5015441;28;20030;-76
2022/07/05 05:16:44;;;;;;;3.35;2.40;;;17.20;99.90;;;;;;5015686;28;20088;-76
2022/07/05 05:19:09;;;;;;;5.60;2.63;;;17.30;99.90;;;;;;5014364;28;20029;-76
2022/07/05 05:21:35;;;;;;;4.97;2.60;;;17.30;99.90;;;;;;5035666;28;20021;-76
2022/07/05 05:24:00;;;;;;;4.30;2.55;;;17.40;99.90;;;;;;5032118;28;20095;-76
2022/07/05 05:26:26;;;;;;;5.18;2.70;;;17.40;99.90;;;;;;5031216;28;20049;-76
2022/07/05 05:28:52;;;;;;;6.35;2.72;;;17.40;99.90;;;;;;5035166;28;20100;-76
2022/07/05 05:31:18;;;;;;;4.80;2.60;;;17.50;99.90;;;;;;5035135;28;20459;-76
2022/07/05 05:33:45;;;;;;;4.72;2.20;;;17.60;99.90;;;;;;5034963;28;20450;-76
2022/07/05 05:36:10;;;;;;;3.55;2.85;;;17.70;99.90;;;;;;5019431;28;20506;-75
2022/07/05 05:38:36;;;;;;;4.82;2.90;;;17.80;99.90;;;;;;5016619;28;20037;-76
2022/07/05 05:41:01;;;;;;;5.40;3.47;;;17.90;99.90;;;;;;5020775;28;20029;-75
2022/07/05 05:43:27;;;;;;;7.43;3.60;;;18.10;99.90;;;;;;5021096;28;20056;-76
2022/07/05 05:45:53;;;;;;;7.97;4.00;;;18.10;99.90;;;;;;5017946;28;20029;-75
2022/07/05 05:48:19;;;;;;;6.55;3.70;;;18.20;99.90;;;;;;5023515;28;20025;-75
2022/07/05 05:50:46;;;;;;;5.63;4.10;;;18.30;99.90;;;;;;5024271;28;20025;-75
2022/07/05 05:53:11;;;;;;;4.45;3.45;;;18.30;99.90;;;;;;5022850;28;20042;-75
2022/07/05 05:55:37;;;;;;;8.20;4.10;;;18.50;99.90;;;;;;5021973;28;20055;-75
2022/07/05 05:58:14;;;;;;;8.60;4.65;;;18.60;99.90;;;;;;5021024;28;20022;-76
2022/07/05 06:00:40;;;;;;;7.68;4.43;;;18.70;99.90;;;;;;5021830;28;20029;-76
2022/07/05 06:03:06;;;;;;;6.45;4.72;;;18.80;99.90;;;;;;5019066;28;20104;-75
2022/07/05 06:05:31;;;;;;;6.78;4.78;;;18.90;99.90;;;;;;5021472;28;20112;-75
2022/07/05 06:07:57;;;;;;;7.22;4.75;;;19.00;99.90;;;;;;5021588;28;20065;-75
2022/07/05 06:10:28;;;;;;;7.57;4.57;;;19.00;99.90;;;;;;5024159;28;20053;-76
2022/07/05 06:12:56;;;;;;;7.07;4.10;;;19.10;99.90;;;;;;5020387;28;20037;-76
2022/07/05 06:15:22;;;;;;;6.82;4.47;;;19.30;99.90;;;;;;5018809;28;20026;-76
2022/07/05 06:17:48;;;;;;;7.65;4.25;;;19.30;99.90;;;;;;5019712;28;20385;-76
2022/07/05 06:20:19;;;;;;;7.03;4.40;;;19.50;99.90;;;;;;5018982;28;20094;-75
2022/07/05 06:22:45;;;;;;;5.50;4.68;;;19.50;99.90;;;;;;5019376;28;20021;-75
2022/07/05 06:25:11;;;;;;;8.90;4.55;;;19.50;99.90;;;;;;5020324;28;20053;-75
2022/07/05 06:27:41;;;;;;;6.72;4.28;;;19.50;99.90;;;;;;5024264;28;20076;-75
2022/07/05 06:30:08;;;;;;;7.10;4.05;;;19.50;99.90;;;;;;5023523;28;20106;-75
2022/07/05 06:32:33;;;;;;;8.07;4.05;;;19.60;99.90;;;;;;5020384;28;20088;-75
2022/07/05 06:34:59;;;;;;;7.72;4.10;;;19.80;99.90;;;;;;5023793;28;20049;-75
2022/07/05 06:37:24;;;;;;;8.18;4.20;;;19.90;99.90;;;;;;5020407;28;20037;-75
2022/07/05 06:39:50;;;;;;;8.70;3.85;;;19.90;99.90;;;;;;5026807;28;20034;-76
2022/07/05 06:42:16;;;;;;;6.53;3.97;;;20.00;99.90;;;;;;5022337;28;20030;-75
2022/07/05 06:44:42;;;;;;;9.80;3.80;;;20.10;99.90;;;;;;5023412;28;20029;-75
2022/07/05 06:47:07;;;;;;;7.07;3.70;;;20.20;99.90;;;;;;5023486;28;20033;-75
2022/07/05 06:49:33;;;;;;;10.10;4.03;;;20.30;99.90;;;;;;5022484;28;20029;-75
2022/07/05 06:51:58;;;;;;;6.90;3.85;;;20.30;99.90;;;;;;5022599;28;20087;-75
2022/07/05 06:54:24;;;;;;;7.55;3.58;;;20.50;99.90;;;;;;5017201;28;20100;-75
2022/07/05 06:56:49;;;;;;;8.38;3.70;;;20.50;99.90;;;;;;5022439;28;20038;-76
2022/07/05 06:59:15;;;;;;;7.97;3.55;;;20.60;99.90;;;;;;5018995;28;20029;-75
2022/07/05 07:01:41;;;;;;;4.95;3.30;;;20.70;99.90;;;;;;5024706;28;20529;-76
2022/07/05 07:04:06;;;;;;;7.28;3.42;;;20.70;99.90;;;;;;5024281;28;20033;-75
2022/07/05 07:06:32;;;;;;;5.53;2.90;;;20.80;99.90;;;;;;5020322;28;20359;-75
2022/07/05 07:11:41;;;;;;;11.30;3.28;;;20.90;99.90;;;;;;5020818;28;20059;-76
2022/07/05 07:14:07;;;;;;;12.43;3.33;;;21.00;99.90;;;;;;5025848;28;20041;-76
2022/07/05 07:16:32;;;;;;;5.97;3.10;;;21.00;99.90;;;;;;5017811;28;20527;-77
2022/07/05 07:18:58;;;;;;;11.20;2.78;;;21.00;99.90;;;;;;5011792;28;20468;-78
2022/07/05 07:21:24;;;;;;;7.90;3.33;;;21.10;99.90;;;;;;5028210;28;20482;-77
2022/07/05 07:23:49;;;;;;;8.45;3.00;;;21.10;99.90;;;;;;5032119;28;20021;-78
2022/07/05 07:26:15;;;;;;;7.35;3.00;;;21.10;99.90;;;;;;5033191;28;20045;-78
2022/07/05 07:28:40;;;;;;;5.43;2.28;;;21.20;99.90;;;;;;5029861;28;20682;-77
2022/07/05 07:31:06;;;;;;;6.93;2.75;;;21.20;99.90;;;;;;5012184;28;20076;-77
2022/07/05 07:33:33;;;;;;;3.08;2.10;;;21.20;99.90;;;;;;5032194;28;20483;-77
2022/07/05 07:35:58;;;;;;;6.55;2.40;;;21.20;99.90;;;;;;5033074;28;20029;-77
2022/07/05 07:38:25;;;;;;;3.88;2.40;;;21.30;99.90;;;;;;5025890;28;20083;-78
2022/07/05 07:40:51;;;;;;;5.28;2.72;;;21.30;99.90;;;;;;5013714;28;20347;-78
2022/07/05 07:43:19;;;;;;;5.82;2.13;;;21.30;99.90;;;;;;5012112;28;20018;-77
2022/07/05 07:45:47;;;;;;;3.72;2.20;;;21.30;99.90;;;;;;5012149;28;20033;-78
2022/07/05 07:48:16;;;;;;;9.23;2.40;;;21.50;99.90;;;;;;5012138;28;20022;-78
2022/07/05 07:50:41;;;;;;;5.95;2.03;;;21.40;99.90;;;;;;5013210;28;20521;-78
2022/07/05 07:53:07;;;;;;;5.53;2.42;;;21.40;99.90;;;;;;5026946;28;20033;-78
2022/07/05 07:55:32;;;;;;;3.20;1.77;;;21.40;99.90;;;;;;5032957;28;20493;-78
2022/07/05 07:57:58;;;;;;;7.72;2.15;;;21.40;99.90;;;;;;5031672;28;20470;-78
2022/07/05 08:00:24;;;;;;;5.20;1.90;;;21.50;99.90;;;;;;5032974;28;20514;-78
2022/07/05 08:02:49;;;;;;;6.05;1.80;;;21.60;99.90;;;;;;5032280;28;20429;-78
2022/07/05 08:05:15;;;;;;;6.30;1.65;;;21.80;99.90;;;;;;5028067;28;20045;-78
2022/07/05 08:07:40;;;;;;;7.15;2.08;;;21.90;99.90;;;;;;5020127;28;20056;-78
2022/07/05 08:10:09;;;;;;;5.75;1.63;;;22.00;99.90;;;;;;5033549;28;20026;-78
2022/07/05 08:12:35;;;;;;;2.85;1.33;;;22.00;99.90;;;;;;5033669;28;20024;-78
2022/07/05 08:15:00;;;;;;;6.30;1.85;;;22.10;99.90;;;;;;5033599;28;20370;-78
2022/07/05 08:17:26;;;;;;;4.35;1.70;;;22.30;99.90;;;;;;5033258;28;20025;-77
2022/07/05 08:22:36;;;;;;;4.15;2.03;;;22.30;99.90;;;;;;5028209;28;20350;-80
2022/07/05 08:25:02;;;;;;;6.40;1.77;;;22.30;99.90;;;;;;5010079;28;20042;-79
2022/07/05 08:27:27;;;;;;;6.07;1.65;;;22.20;99.90;;;;;;5014578;28;20968;-92
2022/07/05 08:29:53;;;;;;;3.60;1.55;;;22.20;99.90;;;;;;5014762;28;20037;-80
2022/07/05 08:32:19;;;;;;;8.80;1.63;;;22.10;99.90;;;;;;5013621;28;20025;-80
2022/07/05 08:34:44;;;;;;;10.88;1.80;;;22.20;99.90;;;;;;5014839;28;20045;-80
2022/07/05 08:37:10;;;;;;;4.03;1.40;;;22.20;99.90;;;;;;5012770;28;20494;-80
2022/07/05 08:39:36;;;;;;;4.47;1.40;;;22.30;99.90;;;;;;5014521;28;20056;-80
2022/07/05 08:42:02;;;;;;;5.00;1.45;;;22.30;99.90;;;;;;5010318;28;20034;-80
2022/07/05 08:44:32;;;;;;;5.38;1.60;;;22.40;99.90;;;;;;5014298;28;20033;-81
2022/07/05 08:47:01;;;;;;;3.75;1.67;;;22.40;99.90;;;;;;5016230;28;20026;-80
2022/07/05 08:49:28;;;;;;;2.80;1.33;;;22.40;99.90;;;;;;5014710;28;20497;-81
2022/07/05 08:51:55;;;;;;;3.95;1.50;;;22.60;99.90;;;;;;5013210;28;20172;-80
2022/07/05 08:54:22;;;;;;;5.20;1.50;;;22.70;99.90;;;;;;5014002;28;20030;-80
2022/07/05 08:56:47;;;;;;;4.22;1.45;;;22.70;99.90;;;;;;5013891;28;20040;-80
2022/07/05 08:59:13;;;;;;;3.78;1.40;;;22.80;99.90;;;;;;5015007;28;20536;-81
2022/07/05 09:01:40;;;;;;;3.88;1.40;;;22.90;99.90;;;;;;5013781;28;20039;-81
2022/07/05 09:04:07;;;;;;;4.55;1.70;;;23.00;99.90;;;;;;5015560;28;20025;-81
2022/07/05 09:06:37;;;;;;;3.75;1.38;;;23.00;99.90;;;;;;5012298;28;20030;-80
2022/07/05 09:09:03;;;;;;;5.78;1.40;;;23.10;99.90;;;;;;5015112;28;20473;-81
2022/07/05 09:11:38;;;;;;;3.25;1.50;;;23.20;99.90;;;;;;5013710;28;20030;-81
2022/07/05 09:14:05;;;;;;;3.25;1.58;;;23.30;99.90;;;;;;5010834;28;20152;-81
2022/07/05 09:16:32;;;;;;;2.92;1.45;;;23.30;99.90;;;;;;5014653;28;20751;-81
2022/07/05 09:19:06;;;;;;;5.32;1.80;;;23.40;99.90;;;;;;5015856;28;20502;-80
2022/07/05 09:21:31;;;;;;;2.80;1.27;;;23.30;99.90;;;;;;5016727;28;20029;-81
2022/07/05 09:24:07;;;;;;;3.58;1.42;;;23.20;99.90;;;;;;5014827;28;20553;-81
2022/07/05 09:26:43;;;;;;;4.65;1.55;;;23.30;99.90;;;;;;5017853;28;20156;-81
2022/07/05 09:29:17;;;;;;;4.63;1.67;;;23.40;99.90;;;;;;5015204;28;20029;-84
2022/07/05 09:31:46;;;;;;;5.43;1.45;;;23.60;99.90;;;;;;4999557;28;20022;-80
2022/07/05 09:34:16;;;;;;;5.38;1.60;;;23.50;99.90;;;;;;5009011;28;20045;-79
2022/07/05 09:36:59;;;;;;;4.32;1.38;;;23.30;99.90;;;;;;4996655;28;20387;-78
2022/07/05 09:39:34;;;;;;;4.85;1.52;;;23.30;99.90;;;;;;4996576;28;20724;-78
2022/07/05 09:42:25;;;;;;;3.15;1.42;;;23.10;99.90;;;;;;4995214;28;20014;-78
2022/07/05 09:44:53;;;;;;;4.18;1.60;;;23.10;99.90;;;;;;4995444;28;20032;-77
2022/07/05 09:47:24;;;;;;;2.13;1.23;;;23.40;99.90;;;;;;5013559;28;20483;-79
2022/07/05 09:49:51;;;;;;;3.22;1.63;;;23.90;99.90;;;;;;5013210;28;20137;-80
2022/07/05 09:52:34;;;;;;;1.70;1.00;;;24.50;99.90;;;;;;5013206;28;20425;-79
2022/07/05 09:55:07;;;;;;;5.63;1.30;;;25.00;99.90;;;;;;5011731;28;20026;-80
2022/07/05 09:57:39;;;;;;;3.60;1.45;;;25.40;99.90;;;;;;5012997;28;20037;-80
2022/07/05 10:00:06;;;;;;;2.30;1.30;;;25.50;99.90;;;;;;5013051;28;20045;-80
2022/07/05 10:02:52;;;;;;;6.03;1.63;;;25.70;99.90;;;;;;5013180;28;20030;-76
2022/07/05 10:05:25;;;;;;;2.38;1.40;;;25.80;99.90;;;;;;5010419;28;20025;-78
2022/07/05 10:07:53;;;;;;;2.33;1.20;;;25.70;99.90;;;;;;5012992;28;20033;-77
2022/07/05 10:10:21;;;;;;;4.47;1.30;;;25.50;99.90;;;;;;5012226;28;20408;-78
2022/07/05 10:12:51;;;;;;;4.00;1.40;;;25.60;99.90;;;;;;5012164;28;20018;-78
2022/07/05 10:15:25;;;;;;;3.80;1.40;;;25.80;99.90;;;;;;5012255;28;20018;-78
2022/07/05 10:18:00;;;;;;;3.08;1.58;;;26.00;99.90;;;;;;5012175;28;20045;-78
2022/07/05 10:20:31;;;;;;;2.88;1.65;;;26.10;99.90;;;;;;5012036;28;20049;-79
2022/07/05 10:22:57;;;;;;;4.60;1.60;;;25.90;99.90;;;;;;5007414;28;20030;-79
2022/07/05 10:25:26;;;;;;;3.08;1.40;;;25.80;99.90;;;;;;5008406;28;20038;-79
2022/07/05 10:27:53;;;;;;;2.53;1.42;;;25.70;99.90;;;;;;5010465;28;20065;-79
2022/07/05 10:30:20;;;;;;;3.42;1.30;;;25.90;99.90;;;;;;5011970;28;20026;-79
2022/07/05 10:32:47;;;;;;;4.22;1.50;;;26.30;99.90;;;;;;5025810;28;20025;-79
2022/07/05 10:35:12;;;;;;;2.55;1.45;;;26.80;99.90;;;;;;5011945;28;20471;-79
2022/07/05 10:37:38;;;;;;;4.68;1.52;;;27.00;99.90;;;;;;5012033;28;20032;-79
2022/07/05 10:40:06;;;;;;;3.15;1.25;;;27.20;99.90;;;;;;5011978;28;20805;-79
2022/07/05 10:42:37;;;;;;;4.70;1.33;;;27.30;99.90;;;;;;5011741;28;20581;-79
2022/07/05 10:45:21;;;;;;;3.67;1.30;;;27.30;98.50;;;;;;5011878;28;20057;-79
2022/07/05 10:48:15;;;;;;;1.40;1.08;;;27.00;97.50;;;;;;5011659;28;20018;-78
2022/07/05 10:50:52;;;;;;;4.57;1.25;;;26.50;98.60;;;;;;5002666;28;20093;-77
2022/07/05 10:53:21;;;;;;;4.97;1.27;;;25.90;98.60;;;;;;5012956;28;20026;-76
2022/07/05 10:56:14;;;;;;;2.65;1.13;;;26.00;99.00;;;;;;5013427;28;20033;-76
2022/07/05 10:58:41;;;;;;;2.60;1.25;;;26.10;99.20;;;;;;5013345;28;20548;-77
2022/07/05 11:01:19;;;;;;;2.63;1.20;;;26.30;99.40;;;;;;5013397;28;20047;-77
2022/07/05 11:04:07;;;;;;;4.13;1.33;;;26.60;97.20;;;;;;5013447;28;20459;-77
2022/07/05 11:06:39;;;;;;;2.88;1.00;;;26.90;94.60;;;;;;5012600;28;20042;-76
2022/07/05 11:09:10;;;;;;;1.77;1.13;;;27.20;97.10;;;;;;5011819;28;20113;-77
2022/07/05 11:11:44;;;;;;;3.35;1.48;;;27.40;96.90;;;;;;5013505;28;20022;-76
2022/07/05 11:14:19;;;;;;;2.03;1.30;;;27.70;94.20;;;;;;5013156;28;20518;-75
2022/07/05 11:16:46;;;;;;;3.40;1.30;;;27.80;92.10;;;;;;5012943;28;20375;-74
2022/07/05 11:19:17;;;;;;;4.53;1.58;;;27.80;94.90;;;;;;5012775;28;20490;-77
2022/07/05 11:22:05;;;;;;;3.10;1.25;;;27.60;94.10;;;;;;5023526;28;20021;-76
2022/07/05 11:24:36;;;;;;;2.22;1.20;;;27.60;95.60;;;;;;5025472;28;20045;-75
2022/07/05 11:27:08;;;;;;;4.25;1.13;;;27.90;93.40;;;;;;5024102;28;20052;-75
2022/07/05 11:29:53;;;;;;;3.58;1.30;;;28.10;93.10;;;;;;5024301;28;20037;-76
2022/07/05 11:32:23;;;;;;;3.25;1.20;;;28.10;92.20;;;;;;5021234;28;20057;-75
2022/07/05 11:34:53;;;;;;;3.90;1.15;;;28.50;93.50;;;;;;5015727;28;20030;-75
2022/07/05 11:37:34;;;;;;;2.03;1.13;;;28.20;92.60;;;;;;5023441;28;20090;-76
2022/07/05 11:40:05;;;;;;;2.38;1.27;;;28.20;91.90;;;;;;5025218;28;20013;-75
2022/07/05 11:42:31;;;;;;;4.13;1.20;;;27.90;94.90;;;;;;5024690;28;20022;-75
2022/07/05 11:44:57;;;;;;;2.63;1.17;;;27.90;94.20;;;;;;5025630;28;20078;-75
2022/07/05 11:47:23;;;;;;;2.58;1.38;;;28.10;93.90;;;;;;5015183;28;20030;-75
2022/07/05 11:49:56;;;;;;;2.80;1.13;;;28.40;93.50;;;;;;5017482;28;20451;-75
2022/07/05 11:52:26;;;;;;;2.70;1.20;;;28.60;92.70;;;;;;5023153;28;20026;-75
2022/07/05 11:54:52;;;;;;;3.70;1.30;;;29.10;92.40;;;;;;5026513;28;20038;-76
2022/07/05 11:57:19;;;;;;;1.85;1.25;;;29.50;91.60;;;;;;5016384;28;20030;-76
2022/07/05 11:59:45;;;;;;;3.08;1.27;;;29.40;88.30;;;;;;5023209;28;20037;-76
2022/07/05 12:02:11;;;;;;;3.15;1.15;;;29.50;90.90;;;;;;5022868;28;20029;-75
2022/07/05 12:04:36;;;;;;;3.08;1.48;;;29.80;87.00;;;;;;5026540;28;20486;-76
2022/07/05 12:07:02;;;;;;;3.42;1.48;;;29.80;83.40;;;;;;5029479;28;20088;-76
2022/07/05 12:15:06;;;;;;;2.47;1.17;;;29.40;84.10;;;;;;5024076;28;20079;-75
2022/07/05 12:17:47;;;;;;;3.47;1.30;;;29.60;86.50;;;;;;5024843;28;20052;-76
2022/07/05 12:20:15;;;;;;;2.40;1.13;;;29.40;85.50;;;;;;5025463;28;20040;-76
2022/07/05 12:22:42;;;;;;;1.23;0.90;;;29.70;88.20;;;;;;5023398;28;20104;-75
2022/07/05 12:25:12;;;;;;;4.38;1.40;;;30.30;87.60;;;;;;5023115;28;20120;-76
2022/07/05 12:27:40;;;;;;;2.58;1.17;;;30.30;79.50;;;;;;5030394;28;20045;-75
2022/07/05 12:30:09;;;;;;;4.35;1.40;;;30.70;80.60;;;;;;5020045;28;20029;-76
2022/07/05 12:33:03;;;;;;;2.92;1.17;;;30.90;80.70;;;;;;5021650;28;20038;-76
2022/07/05 12:35:38;;;;;;;3.47;1.00;;;31.70;78.70;;;;;;5021523;28;20112;-76
2022/07/05 12:38:05;;;;;;;1.92;1.08;;;31.80;77.00;;;;;;5027779;28;20021;-79
2022/07/05 12:40:31;;;;;;;4.78;1.05;;;31.80;78.70;;;;;;5028866;28;20492;-78
2022/07/05 12:43:10;;;;;;;3.38;1.13;;;31.90;78.80;;;;;;5020948;28;20030;-80
2022/07/05 12:45:37;;;;;;;3.42;1.10;;;32.40;76.00;;;;;;5029155;28;20032;-79
2022/07/05 12:48:04;;;;;;;5.30;1.25;;;32.00;70.30;;;;;;5026555;28;20049;-78
2022/07/05 12:50:50;;;;;;;1.88;0.98;;;31.80;74.20;;;;;;5029847;28;20018;-79
2022/07/05 12:59:01;;;;;;;3.17;1.33;;;30.90;71.60;;;;;;5019258;28;20037;-78
2022/07/05 13:01:29;;;;;;;2.00;1.20;;;30.00;70.70;;;;;;5024708;28;20026;-79
2022/07/05 13:04:08;;;;;;;3.55;1.00;;;29.30;73.40;;;;;;5026590;28;20022;-78
2022/07/05 13:06:58;;;;;;;2.58;1.48;;;29.10;76.50;;;;;;5027249;28;20017;-79
2022/07/05 13:09:32;;;;;;;3.70;1.08;;;29.40;76.40;;;;;;5021935;28;20050;-78
2022/07/05 13:12:21;;;;;;;1.95;1.30;;;29.70;76.00;;;;;;5030465;28;20030;-78